Updated16/09/2019 1:19pm 
 

Nearby Airport METAR Reports

 

KVSF - Springfield, Vermont, USA
Distance from station: WSW 8mi, 12km
Updated: 09/16/2019 12:54pm
Mostly cloudy
Mostly cloudy
 Wind from NW
Wind: NW 8 mph , 13 km/h
Temperature: 68°F , 20°C
Dew Point: 45°F , 7°C
Humidity: 43%
Barometer: 30.06 inHg , 1017.9 hPa
Clouds: Mostly cloudy
Visibility: 10 miles , 16 km
Cloud details: Mostly cloudy 5000 ft
2019/09/16 16:54 KVSF 161654Z AUTO 32007KT 10SM BKN050 20/07 A3006 RMK AO2 SLP180 T02000067
KLEB - Lebanon, New Hampshire, USA
Distance from station: N 18mi, 29km
Updated: 09/16/2019 12:53pm
Overcast
Overcast
 Wind from NNW
Wind: NNW 9 mph , 15 km/h
Temperature: 66°F , 19°C
Dew Point: 45°F , 7°C
Humidity: 46%
Barometer: 30.06 inHg , 1017.9 hPa
Clouds: Overcast
Visibility: 10 miles , 16 km
Cloud details: Overcast 4400 ft
2019/09/16 16:53 KLEB 161653Z 33008KT 10SM OVC044 19/07 A3006 RMK AO2 SLP173 T01890067
KRUT - Rutland State, Vermont, USA
Distance from station: WNW 31mi, 50km
Updated: 09/16/2019 12:56pm
Few Clouds
Few Clouds
 Wind from NW
Wind: NW 15 mph , 24 km/h, Gust: 21 mph , 33 km/h
Temperature: 63°F , 17°C
Dew Point: 45°F , 7°C
Humidity: 52%
Barometer: 30.09 inHg , 1019 hPa
Clouds: Few Clouds
Visibility: 10 miles , 16 km
Cloud details: Few Clouds 4300 ft
2019/09/16 16:56 KRUT 161656Z AUTO 31013G18KT 10SM FEW043 17/07 A3009 RMK AO2 SLP186 T01720067 $
 
KEEN - Keene/Dillant, New Hampshire, USA
Distance from station: S 34mi, 55km
Updated: 09/16/2019 12:56pm
Few Clouds
Few Clouds
 Wind from N
Wind: N 12 mph , 19 km/h
Temperature: 66°F , 19°C
Dew Point: 46°F , 8°C
Humidity: 49%
Barometer: 30.06 inHg , 1017.9 hPa
Clouds: Few Clouds
Visibility: 10 miles , 16 km
Cloud details: Few Clouds 4800 ft
2019/09/16 16:56 KEEN 161656Z AUTO 35010KT 10SM FEW048 19/08 A3006 RMK AO2 SLP182 T01890078 $
K1P1 - Plymouth, New Hampshire, USA
Distance from station: NE 42mi, 67km
Updated: 09/16/2019 1:15pm
Mostly cloudy
Mostly cloudy
 Wind from NW
Wind: NW 8 mph , 13 km/h, Gust: 16 mph , 26 km/h
Temperature: 63°F , 17°C
Dew Point: 45°F , 7°C
Humidity: 52%
Barometer: 30.04 inHg , 1017.3 hPa
Clouds: Mostly cloudy
Visibility: 10 miles , 16 km
Cloud details: Mostly cloudy 4900 ft
Mostly cloudy 5500 ft
2019/09/16 17:15 K1P1 161715Z AUTO 32007G14KT 290V360 10SM BKN049 BKN055 17/07 A3004 RMK AO2 T01720071
KAFN - Jaffrey, New Hampshire, USA
Distance from station: SSE 44mi, 70km
Updated: 09/16/2019 12:52pm
Clear
Clear
 Wind from varies
Wind: varies 6 mph , 9 km/h
Temperature: 66°F , 19°C
Dew Point: 45°F , 7°C
Humidity: 46%
Barometer: 30.06 inHg , 1017.9 hPa
Clouds: Clear
Visibility: 10 miles , 16 km
2019/09/16 16:52 KAFN 161652Z AUTO VRB05KT 10SM CLR 19/07 A3006 RMK AO2 SLP183 T01890067
 
KCON - Concord, New Hampshire, USA
Distance from station: ESE 45mi, 73km
Updated: 09/16/2019 12:51pm
Partly cloudy
Partly cloudy
 Wind from NW
Wind: NW 15 mph , 24 km/h, Gust: 24 mph , 39 km/h
Temperature: 66°F , 19°C
Dew Point: 45°F , 7°C
Humidity: 46%
Barometer: 30.03 inHg , 1016.9 hPa
Clouds: Partly cloudy
Visibility: 10 miles , 16 km
Cloud details: Partly cloudy 5000 ft
2019/09/16 16:51 KCON 161651Z AUTO 32013G21KT 10SM SCT050 19/07 A3003 RMK AO2 SLP170 T01940072
KLCI - Laconia Muni, New Hampshire, USA
Distance from station: ENE 49mi, 80km
Updated: 09/16/2019 12:56pm
Few Clouds
Few Clouds
 Wind from WNW
Wind: WNW 12 mph , 19 km/h, Gust: 21 mph , 33 km/h
Temperature: 64°F , 18°C
Dew Point: 46°F , 8°C
Humidity: 52%
Barometer: 30.03 inHg , 1016.9 hPa
Clouds: Few Clouds
Visibility: 10 miles , 16 km
Cloud details: Few Clouds 4400 ft
2019/09/16 16:56 KLCI 161656Z AUTO 29010G18KT 250V330 10SM FEW044 18/08 A3003 RMK AO2 SLP167 T01830083
KDDH - Bennington, Vermont, USA
Distance from station: SW 55mi, 89km
Updated: 09/16/2019 12:54pm
Clear
Clear
 Wind from NNW
Wind: NNW 8 mph , 13 km/h
Temperature: 64°F , 18°C
Dew Point: 45°F , 7°C
Humidity: 49%
Barometer: 30.08 inHg , 1018.6 hPa
Clouds: Clear
Visibility: 10 miles , 16 km
2019/09/16 16:54 KDDH 161654Z AUTO 34007KT 10SM CLR 18/07 A3008 RMK AO2 SLP184 T01830072
 
K6B0 - Middlebury, Vermont, USA
Distance from station: NW 56mi, 90km
Updated: 08/30/2019 5:16pm
NOT Current
Clear
Clear
 Wind from WNW
Wind: WNW 6 mph , 9 km/h
Temperature: 77°F , 25°C
Dew Point: 48°F , 9°C
Humidity: 36%
Barometer: 29.94 inHg , 1013.9 hPa
Clouds: Clear
Visibility: 10 miles , 16 km
2019/08/30 21:16 K6B0 302116Z AUTO 30005KT 10SM CLR 25/09 A2994 RMK AO2 T02510087
KMHT - Manchester, New Hampshire, USA
Distance from station: ESE 56mi, 90km
Updated: 09/16/2019 12:53pm
Mostly cloudy
Mostly cloudy
 Wind from N
Wind: N 13 mph , 20 km/h, Gust: 22 mph , 35 km/h
Temperature: 68°F , 20°C
Dew Point: 43°F , 6°C
Humidity: 40%
Barometer: 30.02 inHg , 1016.6 hPa
Clouds: Mostly cloudy
Visibility: 10 miles , 16 km
Cloud details: Partly cloudy 4800 ft
Mostly cloudy 25000 ft
2019/09/16 16:53 KMHT 161653Z 35011G19KT 10SM SCT048 BKN250 20/06 A3002 RMK AO2 SLP178 T02000061
KORE - Orange, Massachusetts, USA
Distance from station: S 56mi, 90km
Updated: 09/16/2019 12:52pm
Clear
Clear
 Wind from varies
Wind: varies 7 mph , 11 km/h
Temperature: 70°F , 21°C
Dew Point: 45°F , 7°C
Humidity: 40%
Barometer: 30.06 inHg , 1017.9 hPa
Clouds: Clear
Visibility: 10 miles , 16 km
2019/09/16 16:52 KORE 161652Z AUTO VRB06KT 10SM CLR 21/07 A3006 RMK AO2 SLP180 T02060067
 
KMPV - Montpelier/Barre, Vermont, USA
Distance from station: N 58mi, 93km
Updated: 09/16/2019 12:51pm
Mostly cloudy
Mostly cloudy
 Wind from NNW
Wind: NNW 12 mph , 19 km/h
Temperature: 61°F , 16°C
Dew Point: 46°F , 8°C
Humidity: 59%
Barometer: 30.11 inHg , 1019.6 hPa
Clouds: Mostly cloudy
Visibility: 10 miles , 16 km
Cloud details: Mostly cloudy 3900 ft
2019/09/16 16:51 KMPV 161651Z AUTO 33010KT 10SM BKN039 16/08 A3011 RMK AO2 SLP198 T01610078
KASH - Nashua/Boire Fld, New Hampshire, USA
Distance from station: SE 59mi, 95km
Updated: 09/16/2019 12:56pm
Partly cloudy
Partly cloudy
 Wind from WNW
Wind: WNW 13 mph , 20 km/h, Gust: 16 mph , 26 km/h
Temperature: 70°F , 21°C
Dew Point: 46°F , 8°C
Humidity: 43%
Barometer: 30.04 inHg , 1017.3 hPa
Clouds: Partly cloudy
Visibility: 10 miles , 16 km
Cloud details: Partly cloudy 5000 ft
2019/09/16 16:56 KASH 161656Z 30011G14KT 10SM SCT050 21/08 A3004 RMK AO2 SLP175 T02060078
KAQW - North Adams, Massachusetts, USA
Distance from station: SW 62mi, 99km
Updated: 09/16/2019 12:52pm
Clear
Clear
 Wind from varies
Wind: varies 7 mph , 11 km/h
Temperature: 66°F , 19°C
Dew Point: 48°F , 9°C
Humidity: 52%
Barometer: 30.07 inHg , 1018.3 hPa
Clouds: Clear
Visibility: 10 miles , 16 km
2019/09/16 16:52 KAQW 161652Z AUTO VRB06KT 10SM CLR 19/09 A3007 RMK AO2 SLP182 T01890089
 
KGFL - Glens Falls, New York, USA
Distance from station: W 63mi, 101km
Updated: 09/16/2019 12:53pm
Clear
Clear
 Wind from N
Wind: N 10 mph , 17 km/h
Temperature: 66°F , 19°C
Dew Point: 45°F , 7°C
Humidity: 46%
Barometer: 30.09 inHg , 1019 hPa
Clouds: Clear
Visibility: 10 miles , 16 km
2019/09/16 16:53 KGFL 161653Z AUTO 36009KT 10SM CLR 19/07 A3009 RMK AO2 SLP189 T01890067
KFIT - Fitchburg, Massachusetts, USA
Distance from station: SSE 65mi, 105km
Updated: 09/16/2019 12:52pm
Clear
Clear
 Wind from WNW
Wind: WNW 8 mph , 13 km/h
Temperature: 70°F , 21°C
Dew Point: 45°F , 7°C
Humidity: 40%
Barometer: 30.05 inHg , 1017.6 hPa
Clouds: Clear
Visibility: 10 miles , 16 km
2019/09/16 16:52 KFIT 161652Z AUTO 30007KT 10SM CLR 21/07 A3005 RMK AO2 SLP175 T02110072
KDAW - Rochester, New Hampshire, USA
Distance from station: E 73mi, 118km
Updated: 09/16/2019 12:51pm
Overcast
Overcast
 Wind from varies
Wind: varies 3 mph , 6 km/h
Temperature: 64°F , 18°C
Dew Point: 46°F , 8°C
Humidity: 52%
Barometer: 30.01 inHg , 1016.3 hPa
Clouds: Overcast
Visibility: 10 miles , 16 km
Cloud details: Overcast 4400 ft
2019/09/16 16:51 KDAW 161651Z AUTO VRB03KT 10SM OVC044 18/08 A3001 RMK AO2 SLP161 T01830083
 
K1V4 - St. Johnsbury, Vermont, USA
Distance from station: NNE 74mi, 119km
Updated: 09/16/2019 12:54pm

 
Temperature: 64°F , 18°C
Dew Point: 45°F , 7°C
Humidity: 49%
Barometer: 30.04 inHg , 1017.3 hPa
2019/09/16 16:54 K1V4 161654Z AUTO 18/07 A3004 RMK AO1 SLP169 T01780067
KLWM - Lawrence, Massachusetts, USA
Distance from station: SE 77mi, 124km
Updated: 09/16/2019 12:54pm
Few Clouds
Few Clouds
 Wind from NW
Wind: NW 9 mph , 15 km/h
Temperature: 68°F , 20°C
Dew Point: 46°F , 8°C
Humidity: 46%
Barometer: 30.04 inHg , 1017.3 hPa
Clouds: Few Clouds
Visibility: 10 miles , 16 km
Cloud details: Few Clouds 4700 ft
2019/09/16 16:54 KLWM 161654Z 32008KT 10SM FEW047 20/08 A3004 RMK AO2 SLP172 T02000083



Flag Counter
free counter page views since 4/29/2009